createdAt,value
2022-09-21T00:01:11.137Z,1014.70
2022-09-21T00:03:44.223Z,1014.69
2022-09-21T00:06:17.128Z,1014.68
2022-09-21T00:08:50.217Z,1014.68
2022-09-21T00:11:23.210Z,1014.66
2022-09-21T00:13:56.222Z,1014.68
2022-09-21T00:16:29.165Z,1014.68
2022-09-21T00:19:02.151Z,1014.69
2022-09-21T00:21:35.216Z,1014.69
2022-09-21T00:24:08.276Z,1014.72
2022-09-21T00:26:41.235Z,1014.71
2022-09-21T00:29:14.174Z,1014.71
2022-09-21T00:31:47.224Z,1014.73
2022-09-21T00:34:20.190Z,1014.74
2022-09-21T00:36:53.237Z,1014.74
2022-09-21T00:39:26.180Z,1014.76
2022-09-21T00:41:59.143Z,1014.74
2022-09-21T00:44:32.204Z,1014.73
2022-09-21T00:47:05.249Z,1014.74
2022-09-21T00:49:38.247Z,1014.74
2022-09-21T00:52:11.214Z,1014.74
2022-09-21T00:54:44.399Z,1014.73
2022-09-21T00:57:17.224Z,1014.73
2022-09-21T00:59:50.246Z,1014.74
2022-09-21T01:02:23.304Z,1014.75
2022-09-21T01:04:56.235Z,1014.75
2022-09-21T01:07:29.281Z,1014.76
2022-09-21T01:10:02.269Z,1014.78
2022-09-21T01:12:35.224Z,1014.80
2022-09-21T01:15:08.258Z,1014.81
2022-09-21T01:17:41.293Z,1014.81
2022-09-21T01:20:14.233Z,1014.83
2022-09-21T01:22:47.218Z,1014.82
2022-09-21T01:25:20.264Z,1014.84
2022-09-21T01:27:53.245Z,1014.85
2022-09-21T01:30:26.429Z,1014.86
2022-09-21T01:33:00.321Z,1014.87
2022-09-21T01:35:33.287Z,1014.89
2022-09-21T01:38:06.372Z,1014.89
2022-09-21T01:40:39.434Z,1014.90
2022-09-21T01:43:12.281Z,1014.90
2022-09-21T01:45:48.375Z,1014.91
2022-09-21T01:48:21.258Z,1014.93
2022-09-21T01:50:54.292Z,1014.93
2022-09-21T01:53:27.266Z,1014.94
2022-09-21T01:56:00.266Z,1014.94
2022-09-21T01:58:33.375Z,1014.95
2022-09-21T02:01:07.472Z,1014.96
2022-09-21T02:03:40.456Z,1014.96
2022-09-21T02:06:14.009Z,1014.96
2022-09-21T02:08:47.398Z,1014.95
2022-09-21T02:11:20.441Z,1014.94
2022-09-21T02:13:53.356Z,1014.95
2022-09-21T02:16:26.421Z,1014.93
2022-09-21T02:18:59.324Z,1014.93
2022-09-21T02:21:32.427Z,1014.92
2022-09-21T02:24:05.337Z,1014.90
2022-09-21T02:26:38.410Z,1014.91
2022-09-21T02:29:11.316Z,1014.90
2022-09-21T02:31:44.457Z,1014.89
2022-09-21T02:34:17.319Z,1014.87
2022-09-21T02:36:50.410Z,1014.87
2022-09-21T02:39:23.375Z,1014.87
2022-09-21T02:41:56.459Z,1014.84
2022-09-21T02:44:29.334Z,1014.84
2022-09-21T02:47:06.206Z,1014.84
2022-09-21T02:49:39.458Z,1014.84
2022-09-21T02:52:12.352Z,1014.84
2022-09-21T02:54:45.379Z,1014.84
2022-09-21T02:57:18.354Z,1014.85
2022-09-21T02:59:51.471Z,1014.85
2022-09-21T03:02:24.156Z,1014.85
2022-09-21T03:04:57.264Z,1014.85
2022-09-21T03:07:30.436Z,1014.83
2022-09-21T03:10:03.386Z,1014.83
2022-09-21T03:12:36.455Z,1014.84
2022-09-21T03:15:09.391Z,1014.83
2022-09-21T03:17:42.517Z,1014.86
2022-09-21T03:20:15.432Z,1014.87
2022-09-21T03:22:48.528Z,1014.88
2022-09-21T03:25:21.457Z,1014.90
2022-09-21T03:27:54.521Z,1014.91
2022-09-21T03:30:27.438Z,1014.91
2022-09-21T03:33:00.556Z,1014.92
2022-09-21T03:35:33.474Z,1014.92
2022-09-21T03:38:06.495Z,1014.93
2022-09-21T03:40:39.305Z,1014.94
2022-09-21T03:43:12.455Z,1014.94
2022-09-21T03:45:45.566Z,1014.95
2022-09-21T03:48:18.394Z,1014.95
2022-09-21T03:50:51.547Z,1014.96
2022-09-21T03:53:24.442Z,1014.96
2022-09-21T03:55:57.582Z,1014.99
2022-09-21T03:58:31.265Z,1015.00
2022-09-21T04:01:04.236Z,1015.02
2022-09-21T04:03:37.332Z,1015.04
2022-09-21T04:06:11.187Z,1015.05
2022-09-21T04:08:44.381Z,1015.04
2022-09-21T04:11:17.196Z,1015.04
2022-09-21T04:13:50.389Z,1015.04
2022-09-21T04:16:23.300Z,1015.03
2022-09-21T04:18:56.560Z,1015.05
2022-09-21T04:21:29.565Z,1015.05
2022-09-21T04:24:02.518Z,1015.07
2022-09-21T04:26:35.613Z,1015.08
2022-09-21T04:29:08.658Z,1015.08
2022-09-21T04:31:42.642Z,1015.08
2022-09-21T04:34:16.226Z,1015.09
2022-09-21T04:36:49.577Z,1015.12
2022-09-21T04:39:25.553Z,1015.14
2022-09-21T04:42:01.486Z,1015.16
2022-09-21T04:44:38.530Z,1015.17
2022-09-21T04:47:11.552Z,1015.20
2022-09-21T04:49:44.630Z,1015.22
2022-09-21T04:52:19.202Z,1015.23
2022-09-21T04:54:50.250Z,1015.24
2022-09-21T04:57:23.601Z,1015.27
2022-09-21T04:59:56.668Z,1015.28
2022-09-21T05:02:29.526Z,1015.30
2022-09-21T05:05:02.542Z,1015.31
2022-09-21T05:07:35.671Z,1015.34
2022-09-21T05:10:08.679Z,1015.38
2022-09-21T05:12:41.428Z,1015.41
2022-09-21T05:15:14.626Z,1015.42
2022-09-21T05:17:47.723Z,1015.44
2022-09-21T05:20:20.421Z,1015.46
2022-09-21T05:22:53.497Z,1015.48
2022-09-21T05:25:26.579Z,1015.50
2022-09-21T05:27:59.296Z,1015.51
2022-09-21T05:30:32.544Z,1015.53
2022-09-21T05:33:05.477Z,1015.54
2022-09-21T05:35:38.701Z,1015.55
2022-09-21T05:38:11.635Z,1015.57
2022-09-21T05:40:44.619Z,1015.59
2022-09-21T05:43:17.695Z,1015.60
2022-09-21T05:45:50.747Z,1015.61
2022-09-21T05:48:23.389Z,1015.61
2022-09-21T05:50:56.739Z,1015.62
2022-09-21T05:53:29.582Z,1015.65
2022-09-21T05:56:02.521Z,1015.67
2022-09-21T05:58:35.543Z,1015.68
2022-09-21T06:01:08.406Z,1015.70
2022-09-21T06:03:41.642Z,1015.71
2022-09-21T06:06:15.562Z,1015.74
2022-09-21T06:08:48.358Z,1015.75
2022-09-21T06:11:21.611Z,1015.76
2022-09-21T06:13:54.765Z,1015.76
2022-09-21T06:16:30.743Z,1015.78
2022-09-21T06:19:03.743Z,1015.79
2022-09-21T06:21:36.728Z,1015.80
2022-09-21T06:24:09.640Z,1015.82
2022-09-21T06:26:42.762Z,1015.82
2022-09-21T06:29:15.696Z,1015.85
2022-09-21T06:31:48.776Z,1015.86
2022-09-21T06:34:21.793Z,1015.87
2022-09-21T06:36:54.744Z,1015.89
2022-09-21T06:39:27.473Z,1015.90
2022-09-21T06:42:00.558Z,1015.90
2022-09-21T06:44:33.887Z,1015.91
2022-09-21T06:47:07.618Z,1015.90
2022-09-21T06:49:42.612Z,1015.92
2022-09-21T06:52:13.720Z,1015.93
2022-09-21T06:54:46.772Z,1015.95
2022-09-21T06:57:19.736Z,1015.97
2022-09-21T06:59:52.814Z,1015.98
2022-09-21T07:02:25.852Z,1015.98
2022-09-21T07:04:58.767Z,1015.98
2022-09-21T07:07:31.460Z,1015.98
2022-09-21T07:10:05.589Z,1016.00
2022-09-21T07:12:37.547Z,1016.01
2022-09-21T07:15:10.824Z,1016.03
2022-09-21T07:17:43.855Z,1016.04
2022-09-21T07:20:16.464Z,1016.05
2022-09-21T07:22:49.601Z,1016.05
2022-09-21T07:25:22.652Z,1016.06
2022-09-21T07:27:55.833Z,1016.07
2022-09-21T07:30:28.782Z,1016.07
2022-09-21T07:33:01.986Z,1016.08
2022-09-21T07:35:34.840Z,1016.09
2022-09-21T07:38:07.819Z,1016.10
2022-09-21T07:40:40.826Z,1016.10
2022-09-21T07:43:13.890Z,1016.10
2022-09-21T07:45:46.925Z,1016.09
2022-09-21T07:48:19.934Z,1016.10
2022-09-21T07:50:53.097Z,1016.10
2022-09-21T07:53:26.910Z,1016.12
2022-09-21T07:55:59.899Z,1016.11
2022-09-21T07:58:32.968Z,1016.11
2022-09-21T08:01:06.958Z,1016.11
2022-09-21T08:03:39.555Z,1016.12
2022-09-21T08:06:12.812Z,1016.12
2022-09-21T08:08:45.883Z,1016.12
2022-09-21T08:11:18.908Z,1016.11
2022-09-21T08:13:51.888Z,1016.10
2022-09-21T08:16:25.170Z,1016.09
2022-09-21T08:18:59.086Z,1016.09
2022-09-21T08:21:31.852Z,1016.10
2022-09-21T08:24:04.857Z,1016.11
2022-09-21T08:26:37.901Z,1016.11
2022-09-21T08:29:10.995Z,1016.13
2022-09-21T08:31:43.951Z,1016.14
2022-09-21T08:34:17.002Z,1016.13
2022-09-21T08:36:54.421Z,1016.12
2022-09-21T08:39:22.961Z,1016.14
2022-09-21T08:41:55.685Z,1016.15
2022-09-21T08:44:32.635Z,1016.15
2022-09-21T08:47:05.785Z,1016.16
2022-09-21T08:49:38.771Z,1016.17
2022-09-21T08:52:14.538Z,1016.17
2022-09-21T08:54:44.669Z,1016.17
2022-09-21T08:57:17.693Z,1016.16
2022-09-21T08:59:50.670Z,1016.14
2022-09-21T09:02:23.906Z,1016.13
2022-09-21T09:04:56.908Z,1016.13
2022-09-21T09:07:29.726Z,1016.11
2022-09-21T09:10:02.713Z,1016.09
2022-09-21T09:12:35.675Z,1016.07
2022-09-21T09:15:08.717Z,1016.05
2022-09-21T09:17:41.751Z,1016.05
2022-09-21T09:20:14.681Z,1016.04
2022-09-21T09:22:47.746Z,1016.02
2022-09-21T09:25:20.855Z,1016.00
2022-09-21T09:27:53.828Z,1016.00
2022-09-21T09:30:26.688Z,1015.98
2022-09-21T09:32:59.819Z,1015.97
2022-09-21T09:35:32.875Z,1015.95
2022-09-21T09:38:05.697Z,1015.95
2022-09-21T09:40:52.761Z,1015.92
2022-09-21T09:43:25.679Z,1015.90
2022-09-21T09:45:58.736Z,1015.87
2022-09-21T09:48:32.067Z,1015.85
2022-09-21T09:51:04.754Z,1015.85
2022-09-21T09:53:37.869Z,1015.83
2022-09-21T09:56:10.860Z,1015.81
2022-09-21T09:58:43.858Z,1015.80
2022-09-21T10:01:16.854Z,1015.79
2022-09-21T10:03:49.850Z,1015.77
2022-09-21T10:06:22.923Z,1015.75
2022-09-21T10:08:55.932Z,1015.74
2022-09-21T10:11:28.872Z,1015.71
2022-09-21T10:14:01.871Z,1015.70
2022-09-21T10:16:34.721Z,1015.67
2022-09-21T10:19:07.779Z,1015.65
2022-09-21T10:21:40.851Z,1015.62
2022-09-21T10:24:13.759Z,1015.61
2022-09-21T10:26:49.739Z,1015.59
2022-09-21T10:29:22.891Z,1015.57
2022-09-21T10:31:55.754Z,1015.57
2022-09-21T10:34:29.402Z,1015.56
2022-09-21T10:37:02.788Z,1015.56
2022-09-21T10:39:35.763Z,1015.57
2022-09-21T10:42:08.910Z,1015.56
2022-09-21T10:44:41.769Z,1015.54
2022-09-21T10:47:16.781Z,1015.53
2022-09-21T10:49:47.885Z,1015.49
2022-09-21T10:52:20.954Z,1015.48
2022-09-21T10:54:53.952Z,1015.45
2022-09-21T10:57:26.776Z,1015.41
2022-09-21T10:59:59.780Z,1015.39
2022-09-21T11:02:32.948Z,1015.38
2022-09-21T11:05:05.834Z,1015.36
2022-09-21T11:07:39.153Z,1015.34
2022-09-21T11:10:11.801Z,1015.31
2022-09-21T11:12:44.912Z,1015.29
2022-09-21T11:15:18.119Z,1015.29
2022-09-21T11:17:50.909Z,1015.28
2022-09-21T11:20:24.116Z,1015.26
2022-09-21T11:22:57.796Z,1015.25
2022-09-21T11:25:29.849Z,1015.24
2022-09-21T11:28:02.823Z,1015.21
2022-09-21T11:30:35.921Z,1015.20
2022-09-21T11:33:08.912Z,1015.17
2022-09-21T11:35:42.168Z,1015.15
2022-09-21T11:38:15.229Z,1015.13
2022-09-21T11:40:47.840Z,1015.11
2022-09-21T11:43:23.320Z,1015.08
2022-09-21T11:45:54.204Z,1015.06
2022-09-21T11:48:27.103Z,1015.03
2022-09-21T11:50:59.872Z,1015.00
2022-09-21T11:53:32.883Z,1014.98
2022-09-21T11:56:05.873Z,1014.97
2022-09-21T11:58:39.058Z,1014.93
2022-09-21T12:01:11.897Z,1014.92
2022-09-21T12:03:45.027Z,1014.88
2022-09-21T12:06:17.900Z,1014.86
2022-09-21T12:08:50.924Z,1014.84
2022-09-21T12:11:37.911Z,1014.82
2022-09-21T12:14:10.910Z,1014.80
2022-09-21T12:16:44.147Z,1014.79
2022-09-21T12:19:16.896Z,1014.77
2022-09-21T12:21:49.912Z,1014.75
2022-09-21T12:24:23.151Z,1014.72
2022-09-21T12:26:55.932Z,1014.68
2022-09-21T12:29:28.904Z,1014.66
2022-09-21T12:32:01.925Z,1014.64
2022-09-21T12:34:35.127Z,1014.61
2022-09-21T12:37:08.090Z,1014.57
2022-09-21T12:39:41.296Z,1014.54
2022-09-21T12:42:13.946Z,1014.52
2022-09-21T12:44:46.939Z,1014.51
2022-09-21T12:47:20.132Z,1014.50
2022-09-21T12:49:53.122Z,1014.49
2022-09-21T12:52:25.965Z,1014.47
2022-09-21T12:54:58.986Z,1014.46
2022-09-21T12:57:53.496Z,1014.47
2022-09-21T13:00:10.991Z,1014.44
2022-09-21T13:05:16.975Z,1014.42
2022-09-21T13:07:50.119Z,1014.40
2022-09-21T13:10:23.109Z,1014.40
2022-09-21T13:12:55.968Z,1014.39
2022-09-21T13:15:29.027Z,1014.38
2022-09-21T13:18:01.997Z,1014.37
2022-09-21T13:20:35.022Z,1014.37
2022-09-21T13:23:08.135Z,1014.36
2022-09-21T13:25:41.206Z,1014.35
2022-09-21T13:28:13.990Z,1014.33
2022-09-21T13:30:47.224Z,1014.31
2022-09-21T13:33:20.157Z,1014.29
2022-09-21T13:35:53.375Z,1014.27
2022-09-21T13:38:29.812Z,1014.25
2022-09-21T13:41:03.328Z,1014.22
2022-09-21T13:46:09.143Z,1014.15
2022-09-21T13:48:42.208Z,1014.13
2022-09-21T13:51:16.959Z,1014.10
2022-09-21T13:53:50.171Z,1014.10
2022-09-21T13:56:23.079Z,1014.07
2022-09-21T13:58:56.054Z,1014.05
2022-09-21T14:01:46.423Z,1014.03
2022-09-21T14:04:02.091Z,1014.01
2022-09-21T14:06:35.075Z,1014.00
2022-09-21T14:09:08.325Z,1013.97
2022-09-21T14:11:41.328Z,1013.95
2022-09-21T14:14:14.059Z,1013.94
2022-09-21T14:16:47.409Z,1013.92
2022-09-21T14:19:20.193Z,1013.91
2022-09-21T14:21:53.210Z,1013.90
2022-09-21T14:24:28.019Z,1013.87
2022-09-21T14:27:03.275Z,1013.86
2022-09-21T14:29:34.200Z,1013.84
2022-09-21T14:32:07.189Z,1013.84
2022-09-21T14:34:40.152Z,1013.83
2022-09-21T14:37:13.110Z,1013.82
2022-09-21T14:39:46.136Z,1013.82
2022-09-21T14:42:19.333Z,1013.82
2022-09-21T14:44:52.295Z,1013.81
2022-09-21T14:50:15.537Z,1013.79
2022-09-21T14:52:48.146Z,1013.78
2022-09-21T14:55:21.302Z,1013.77
2022-09-21T14:57:54.179Z,1013.75
2022-09-21T15:00:27.116Z,1013.73
2022-09-21T15:03:00.152Z,1013.70
2022-09-21T15:05:33.453Z,1013.68
2022-09-21T15:08:06.536Z,1013.67
2022-09-21T15:10:39.524Z,1013.65
2022-09-21T15:13:12.507Z,1013.62
2022-09-21T15:15:45.297Z,1013.60
2022-09-21T15:18:18.152Z,1013.57
2022-09-21T15:20:51.466Z,1013.55
2022-09-21T15:23:24.235Z,1013.52
2022-09-21T15:25:57.184Z,1013.50
2022-09-21T15:28:35.058Z,1013.50
2022-09-21T15:31:03.188Z,1013.50
2022-09-21T15:33:36.368Z,1013.48
2022-09-21T15:36:09.184Z,1013.47
2022-09-21T15:38:42.196Z,1013.46
2022-09-21T15:41:15.198Z,1013.44
2022-09-21T15:43:48.222Z,1013.42
2022-09-21T15:46:21.586Z,1013.41
2022-09-21T15:49:00.996Z,1013.40
2022-09-21T15:51:29.247Z,1013.39
2022-09-21T15:54:02.207Z,1013.37
2022-09-21T15:56:35.292Z,1013.37
2022-09-21T15:59:08.448Z,1013.36
2022-09-21T16:01:41.246Z,1013.37
2022-09-21T16:04:14.298Z,1013.38
2022-09-21T16:06:47.421Z,1013.38
2022-09-21T16:09:20.370Z,1013.38
2022-09-21T16:11:53.263Z,1013.39
2022-09-21T16:14:26.253Z,1013.40
2022-09-21T16:16:59.500Z,1013.42
2022-09-21T16:19:32.683Z,1013.42
2022-09-21T16:22:05.378Z,1013.44
2022-09-21T16:24:38.270Z,1013.46
2022-09-21T16:27:11.260Z,1013.49
2022-09-21T16:29:44.608Z,1013.51
2022-09-21T16:32:17.531Z,1013.54
2022-09-21T16:34:50.634Z,1013.56
2022-09-21T16:37:23.588Z,1013.59
2022-09-21T16:39:56.608Z,1013.60
2022-09-21T16:42:29.319Z,1013.61
2022-09-21T16:45:02.693Z,1013.61
2022-09-21T16:47:35.628Z,1013.63
2022-09-21T16:50:08.584Z,1013.64
2022-09-21T16:52:41.660Z,1013.65
2022-09-21T16:55:16.207Z,1013.66
2022-09-21T16:57:49.391Z,1013.68
2022-09-21T17:00:22.751Z,1013.69
2022-09-21T17:02:56.523Z,1013.71
2022-09-21T17:05:29.433Z,1013.70
2022-09-21T17:08:02.406Z,1013.69
2022-09-21T17:10:35.498Z,1013.69
2022-09-21T17:13:08.484Z,1013.70
2022-09-21T17:15:41.530Z,1013.71
2022-09-21T17:18:14.401Z,1013.71
2022-09-21T17:20:47.576Z,1013.71
2022-09-21T17:23:20.482Z,1013.72
2022-09-21T17:25:53.447Z,1013.74
2022-09-21T17:28:26.556Z,1013.74
2022-09-21T17:30:59.549Z,1013.75
2022-09-21T17:33:32.507Z,1013.78
2022-09-21T17:36:05.335Z,1013.78
2022-09-21T17:38:38.393Z,1013.78
2022-09-21T17:41:11.457Z,1013.79
2022-09-21T17:43:44.494Z,1013.79
2022-09-21T17:46:17.763Z,1013.81
2022-09-21T17:48:50.770Z,1013.83
2022-09-21T17:51:23.726Z,1013.83
2022-09-21T17:53:56.671Z,1013.84
2022-09-21T17:56:29.496Z,1013.85
2022-09-21T17:59:02.435Z,1013.86
2022-09-21T18:01:35.607Z,1013.87
2022-09-21T18:04:08.516Z,1013.87
2022-09-21T18:06:41.736Z,1013.88
2022-09-21T18:09:14.405Z,1013.91
2022-09-21T18:11:47.687Z,1013.93
2022-09-21T18:14:20.526Z,1013.93
2022-09-21T18:16:53.769Z,1013.93
2022-09-21T18:19:26.602Z,1013.94
2022-09-21T18:21:59.547Z,1013.97
2022-09-21T18:24:32.610Z,1013.98
2022-09-21T18:27:05.806Z,1014.00
2022-09-21T18:29:40.314Z,1014.02
2022-09-21T18:32:11.463Z,1014.04
2022-09-21T18:34:44.544Z,1014.05
2022-09-21T18:37:17.512Z,1014.06
2022-09-21T18:39:50.463Z,1014.08
2022-09-21T18:42:23.552Z,1014.07
2022-09-21T18:44:56.819Z,1014.08
2022-09-21T18:47:29.529Z,1014.10
2022-09-21T18:50:02.536Z,1014.11
2022-09-21T18:52:35.657Z,1014.14
2022-09-21T18:55:08.623Z,1014.15
2022-09-21T18:57:41.568Z,1014.17
2022-09-21T19:00:14.482Z,1014.19
2022-09-21T19:03:15.714Z,1014.19
2022-09-21T19:05:26.592Z,1014.21
2022-09-21T19:07:59.662Z,1014.21
2022-09-21T19:10:32.547Z,1014.23
2022-09-21T19:13:05.532Z,1014.23
2022-09-21T19:16:01.042Z,1014.25
2022-09-21T19:18:11.501Z,1014.26
2022-09-21T19:20:44.526Z,1014.28
2022-09-21T19:23:17.794Z,1014.29
2022-09-21T19:25:50.604Z,1014.30
2022-09-21T19:28:23.847Z,1014.31
2022-09-21T19:31:00.169Z,1014.33
2022-09-21T19:33:49.046Z,1014.31
2022-09-21T19:36:02.603Z,1014.31
2022-09-21T19:38:35.692Z,1014.31
2022-09-21T19:41:08.846Z,1014.29
2022-09-21T19:43:41.636Z,1014.30
2022-09-21T19:46:14.636Z,1014.31
2022-09-21T19:48:47.706Z,1014.30
2022-09-21T19:51:20.694Z,1014.30
2022-09-21T19:53:53.710Z,1014.30
2022-09-21T19:56:26.573Z,1014.29
2022-09-21T19:58:59.616Z,1014.27
2022-09-21T20:01:32.810Z,1014.26
2022-09-21T20:04:05.651Z,1014.25
2022-09-21T20:06:38.877Z,1014.25
2022-09-21T20:09:11.582Z,1014.26
2022-09-21T20:11:44.614Z,1014.26
2022-09-21T20:14:17.851Z,1014.26
2022-09-21T20:16:51.000Z,1014.24
2022-09-21T20:19:37.932Z,1014.25
2022-09-21T20:22:10.890Z,1014.25
2022-09-21T20:24:43.585Z,1014.26
2022-09-21T20:27:16.998Z,1014.27
2022-09-21T20:29:49.985Z,1014.27
2022-09-21T20:32:22.887Z,1014.25
2022-09-21T20:34:55.786Z,1014.25
2022-09-21T20:37:28.910Z,1014.24
2022-09-21T20:40:02.055Z,1014.23
2022-09-21T20:42:34.697Z,1014.23
2022-09-21T20:45:07.767Z,1014.23
2022-09-21T20:47:40.705Z,1014.22
2022-09-21T20:50:13.672Z,1014.23
2022-09-21T20:52:46.688Z,1014.24
2022-09-21T20:55:19.687Z,1014.22
2022-09-21T20:57:52.619Z,1014.22
2022-09-21T21:00:26.038Z,1014.23
2022-09-21T21:02:58.818Z,1014.24
2022-09-21T21:05:31.964Z,1014.23
2022-09-21T21:08:04.692Z,1014.22
2022-09-21T21:10:37.775Z,1014.22
2022-09-21T21:13:11.014Z,1014.22
2022-09-21T21:15:44.007Z,1014.21
2022-09-21T21:18:17.011Z,1014.23
2022-09-21T21:20:50.102Z,1014.23
2022-09-21T21:23:22.984Z,1014.21
2022-09-21T21:25:56.046Z,1014.21
2022-09-21T21:28:28.969Z,1014.20
2022-09-21T21:31:02.054Z,1014.20
2022-09-21T21:33:35.038Z,1014.21
2022-09-21T21:36:08.084Z,1014.20
2022-09-21T21:38:41.096Z,1014.18
2022-09-21T21:41:14.021Z,1014.18
2022-09-21T21:43:47.054Z,1014.16
2022-09-21T21:46:20.114Z,1014.15
2022-09-21T21:48:53.032Z,1014.15
2022-09-21T21:51:26.262Z,1014.15
2022-09-21T21:54:00.052Z,1014.14
2022-09-21T21:56:33.024Z,1014.13
2022-09-21T21:59:06.014Z,1014.13
2022-09-21T22:01:39.134Z,1014.11
2022-09-21T22:04:12.058Z,1014.09
2022-09-21T22:06:45.119Z,1014.08
2022-09-21T22:09:17.992Z,1014.08
2022-09-21T22:11:51.040Z,1014.08
2022-09-21T22:14:24.095Z,1014.09
2022-09-21T22:16:57.151Z,1014.08
2022-09-21T22:19:30.121Z,1014.08
2022-09-21T22:22:03.059Z,1014.08
2022-09-21T22:24:36.125Z,1014.09
2022-09-21T22:27:09.148Z,1014.08
2022-09-21T22:29:42.124Z,1014.07
2022-09-21T22:32:15.079Z,1014.06
2022-09-21T22:34:48.043Z,1014.05
2022-09-21T22:37:21.168Z,1014.06
2022-09-21T22:39:54.134Z,1014.04
2022-09-21T22:42:27.138Z,1014.03
2022-09-21T22:45:00.160Z,1014.02
2022-09-21T22:47:33.155Z,1014.00
2022-09-21T22:50:06.135Z,1014.00
2022-09-21T22:52:39.164Z,1014.02
2022-09-21T22:55:12.150Z,1014.01
2022-09-21T22:57:45.161Z,1014.02
2022-09-21T23:00:18.180Z,1014.02
2022-09-21T23:02:51.121Z,1014.03
2022-09-21T23:05:24.170Z,1014.03
2022-09-21T23:07:57.136Z,1014.04
2022-09-21T23:10:30.203Z,1014.04
2022-09-21T23:13:03.196Z,1014.02
2022-09-21T23:15:35.976Z,1014.02
2022-09-21T23:18:09.114Z,1014.01
2022-09-21T23:20:41.958Z,1014.00
2022-09-21T23:23:15.210Z,1014.01
2022-09-21T23:25:48.159Z,1014.00
2022-09-21T23:28:21.214Z,1013.98
2022-09-21T23:30:54.186Z,1013.96
2022-09-21T23:33:27.223Z,1013.95
2022-09-21T23:36:00.208Z,1013.92
2022-09-21T23:38:33.212Z,1013.90
2022-09-21T23:41:06.259Z,1013.90
2022-09-21T23:43:39.192Z,1013.90
2022-09-21T23:46:12.220Z,1013.90
2022-09-21T23:48:45.180Z,1013.89
2022-09-21T23:51:18.226Z,1013.88
2022-09-21T23:53:51.266Z,1013.87
2022-09-21T23:56:25.258Z,1013.86
2022-09-21T23:58:58.261Z,1013.85
